Latest Weather Observations for Willis Island

IDQ60801

Issued at 5:02 pm EST Saturday 30 April 2016 (issued every 30 minutes, with the page automatically refreshed every 10 minutes)

About weather observations | Map of weather stations | Latest weather observations for QLD | Other Formats
Station Details ID: 200283 Name: WILLIS ISLAND Lat: -16.29 Lon: 149.97 Height: 9.29 m
Data from the previous 72 hours. | See also: Recent months at Willis Island
Date/Time
EST
Temp
°C
App
Temp
°C
Dew
Point
Rel
Hum
%
Delta-T
°C
Wind Press
QNH
hPa
Press
MSL
hPa
Rain
since 9 am
mm
Dir
 
Spd
km/h
Gust
km/h
Spd
kts
Gust
kts
30/05:00pm 27.9 29.0 25.0 84 2.0 SE 28 32 15 17 1012.5 1012.4 0.4
30/04:30pm 28.3 29.4 25.0 82 2.3 SE 28 33 15 18 1012.4 1012.3 0.4
30/04:00pm 28.5 29.6 24.9 81 2.5 SE 28 32 15 17 1012.2 1012.1 0.4
30/03:30pm 28.8 30.4 25.2 81 2.5 SE 26 30 14 16 1012.0 1011.9 0.4
30/03:00pm 29.1 30.7 25.1 79 2.8 SE 26 30 14 16 1012.0 1011.9 0.4
30/02:30pm 29.1 30.3 25.1 79 2.8 SE 28 32 15 17 1012.1 1012.0 0.4
30/02:00pm 29.6 30.9 25.3 77 3.0 ESE 28 32 15 17 1012.4 1012.3 0.4
30/01:30pm 29.7 30.8 25.5 78 3.0 ESE 30 33 16 18 1012.6 1012.5 0.4
30/01:00pm 29.7 30.6 25.3 77 3.1 SE 30 35 16 19 1012.8 1012.7 0.4
30/12:30pm 29.3 29.8 25.2 78 2.9 SE 32 35 17 19 1013.2 1013.1 0.2
30/12:00pm 29.6 30.1 25.2 77 3.1 ESE 32 35 17 19 1013.7 1013.6 0.2
30/11:30am 29.5 30.5 25.4 78 2.9 ESE 30 35 16 19 1014.1 1014.0 0.2
30/11:00am 29.3 29.8 25.2 78 2.9 ESE 32 35 17 19 1014.3 1014.2 0.2
30/10:30am 29.3 29.9 25.3 79 2.8 ESE 32 35 17 19 1014.6 1014.5 0.2
30/10:00am 29.0 29.6 25.3 80 2.6 ESE 32 37 17 20 1015.0 1014.9 0.2
30/09:30am 28.8 28.9 24.9 79 2.7 ESE 33 39 18 21 1015.2 1015.1 0.0
30/09:00am 28.5 28.6 24.8 80 2.6 SE 33 37 18 20 1015.4 1015.3 8.0
30/08:30am 28.3 28.4 24.9 82 2.4 SE 33 39 18 21 1015.2 1015.1 -
30/08:00am 28.0 28.4 25.1 84 2.0 ESE 32 39 17 21 1015.0 1014.9 -
30/07:30am 27.7 28.0 24.8 84 2.0 ESE 32 35 17 19 1014.8 1014.7 -
30/07:00am 27.6 27.4 24.4 83 2.2 ESE 33 39 18 21 1014.5 1014.4 -
30/06:30am 27.3 27.4 24.6 85 1.9 ESE 32 37 17 20 1014.1 1014.0 -
30/06:00am 27.2 27.3 24.6 86 1.8 ESE 32 37 17 20 1013.8 1013.7 -
30/05:30am 27.3 27.4 24.9 87 1.7 ESE 33 39 18 21 1013.4 1013.3 -
30/05:00am 27.2 27.5 24.9 87 1.6 ESE 32 37 17 20 1013.1 1013.0 -
30/04:30am 27.2 27.3 24.9 87 1.6 ESE 33 39 18 21 1013.0 1012.9 -
30/04:00am 26.9 27.4 25.2 90 1.2 SE 32 39 17 21 1012.8 1012.7 -
30/03:30am 25.8 25.9 24.6 93 0.8 E 32 41 17 22 1013.0 1012.9 -
30/03:00am 26.0 26.2 25.0 94 0.7 E 33 44 18 24 1013.2 1013.1 2.0
30/02:30am 27.5 27.8 24.9 86 1.8 SE 32 39 17 21 1013.2 1013.1 -
30/02:00am 27.5 27.9 25.1 87 1.7 SE 32 35 17 19 1013.4 1013.3 -
30/01:30am 27.6 28.2 25.3 87 1.6 SE 32 37 17 20 1013.6 1013.5 -
30/01:00am 27.6 28.1 25.2 87 1.7 SE 32 37 17 20 1013.8 1013.7 -
30/12:30am 27.5 27.8 24.8 85 1.9 SE 32 37 17 20 1013.9 1013.8 -
30/12:00am 27.6 28.0 25.0 86 1.8 ESE 32 39 17 21 1014.4 1014.3 -
 
Date/Time
EST
Temp
°C
App
Temp
°C
Dew
Point
Rel
Hum
%
Delta-T
°C
Wind Press
QNH
hPa
Press
MSL
hPa
Rain
since 9 am
mm
Dir
 
Spd
km/h
Gust
km/h
Spd
kts
Gust
kts
29/11:30pm 27.6 27.3 24.9 85 1.9 ESE 35 39 19 21 1014.6 1014.5 -
29/11:00pm 27.6 27.7 24.9 85 1.9 ESE 33 39 18 21 1014.9 1014.8 -
29/10:30pm 27.7 27.8 24.8 84 2.0 ESE 33 39 18 21 1015.0 1014.9 -
29/10:00pm 27.6 27.6 24.7 84 2.0 ESE 33 39 18 21 1015.0 1014.9 -
29/09:30pm 27.7 27.3 24.7 84 2.1 ESE 35 41 19 22 1015.0 1014.9 -
29/09:00pm 27.7 27.5 25.0 85 1.9 ESE 35 39 19 21 1014.8 1014.7 -
29/08:30pm 27.7 27.1 24.4 82 2.3 ESE 35 39 19 21 1014.5 1014.4 -
29/08:00pm 27.7 27.9 25.1 86 1.8 ESE 33 39 18 21 1014.2 1014.1 -
29/07:30pm 27.7 27.4 24.8 84 2.0 ESE 35 41 19 22 1013.9 1013.8 -
29/07:00pm 27.6 27.7 24.9 85 1.9 ESE 33 39 18 21 1013.5 1013.4 -
29/06:30pm 27.6 27.6 24.7 84 2.0 SE 33 41 18 22 1013.2 1013.1 -
29/06:00pm 27.8 27.0 24.6 83 2.2 SE 37 43 20 23 1013.0 1012.9 -
29/05:30pm 27.8 27.3 24.5 82 2.3 ESE 35 41 19 22 1012.8 1012.7 -
29/05:00pm 28.0 27.6 24.7 82 2.3 SE 35 41 19 22 1012.6 1012.5 -
29/04:30pm 27.8 27.2 24.9 84 2.0 SE 37 43 20 23 1012.4 1012.3 -
29/04:00pm 28.5 28.6 24.8 80 2.6 ESE 33 39 18 21 1012.1 1012.0 -
29/03:30pm 28.6 28.0 24.9 80 2.6 SE 37 44 20 24 1012.0 1011.9 0.2
29/03:00pm 28.3 27.9 25.2 83 2.2 ESE 37 46 20 25 1012.1 1012.0 0.2
29/02:30pm 27.8 28.0 25.1 85 1.9 SE 33 43 18 23 1012.3 1012.2 0.2
29/02:00pm 29.3 29.0 24.9 77 3.1 ESE 35 39 19 21 1012.4 1012.3 0.2
29/01:30pm 29.3 29.5 25.0 77 3.0 ESE 33 39 18 21 1012.6 1012.5 0.2
29/01:00pm 29.5 29.6 24.9 76 3.2 ESE 33 39 18 21 1012.9 1012.8 0.2
29/12:30pm 29.5 29.2 24.9 76 3.2 ESE 35 41 19 22 1013.2 1013.1 0.2
29/12:00pm 29.4 29.3 25.1 77 3.0 ESE 35 41 19 22 1013.6 1013.5 0.2
29/11:30am 29.4 29.1 24.8 76 3.2 ESE 35 43 19 23 1013.9 1013.8 0.0
29/11:00am 29.2 29.1 25.1 78 2.9 ESE 35 43 19 23 1014.2 1014.1 0.0
29/10:30am 29.1 28.9 25.0 78 2.9 ESE 35 43 19 23 1014.7 1014.6 0.0
29/10:00am 28.2 29.0 25.6 86 1.8 SE 32 35 17 19 1014.9 1014.8 0.0
29/09:30am 28.9 29.2 25.2 80 2.6 ESE 33 39 18 21 1015.0 1014.9 0.0
29/09:00am 28.5 28.7 25.1 82 2.4 SE 33 39 18 21 1014.9 1014.8 1.0
29/08:30am 28.3 27.9 24.6 80 2.6 SE 35 41 19 22 1014.7 1014.6 1.0
29/08:00am 27.9 27.3 24.3 81 2.5 ESE 35 41 19 22 1014.8 1014.7 1.0
29/07:30am 27.5 27.3 24.3 83 2.2 ESE 33 39 18 21 1014.6 1014.5 1.0
29/07:00am 27.4 26.8 24.4 84 2.1 ESE 35 41 19 22 1014.1 1014.0 1.0
29/06:30am 27.3 26.7 24.4 84 2.0 E 35 41 19 22 1013.7 1013.6 1.0
29/06:00am 27.2 26.2 24.3 84 2.0 ESE 37 44 20 24 1013.3 1013.2 1.0
29/05:30am 27.2 25.4 24.2 84 2.1 ESE 41 46 22 25 1012.8 1012.7 1.0
29/05:00am 27.3 25.8 24.1 83 2.2 ESE 39 46 21 25 1012.5 1012.4 1.0
29/04:30am 27.2 25.8 24.2 84 2.1 ESE 39 46 21 25 1012.3 1012.2 1.0
29/04:00am 27.2 25.8 24.2 84 2.1 ESE 39 46 21 25 1012.1 1012.0 1.0
29/03:30am 27.3 25.9 24.3 84 2.1 ESE 39 43 21 23 1012.3 1012.2 1.0
29/03:00am 27.3 26.5 24.6 85 1.9 ESE 37 41 20 22 1012.4 1012.3 1.0
29/02:30am 27.2 26.7 24.5 85 1.9 SE 35 41 19 22 1012.7 1012.6 1.0
29/02:00am 27.1 26.7 24.7 87 1.7 ESE 35 41 19 22 1012.9 1012.8 1.0
29/01:30am 27.2 26.7 24.5 85 1.9 ESE 35 41 19 22 1013.1 1013.0 1.0
29/01:00am 27.3 27.3 24.7 86 1.8 ESE 33 39 18 21 1013.6 1013.5 1.0
29/12:30am 27.2 27.1 24.6 86 1.8 ESE 33 41 18 22 1013.9 1013.8 1.0
29/12:00am 27.3 27.5 25.0 87 1.6 ESE 33 39 18 21 1014.2 1014.1 1.0
 
Date/Time
EST
Temp
°C
App
Temp
°C
Dew
Point
Rel
Hum
%
Delta-T
°C
Wind Press
QNH
hPa
Press
MSL
hPa
Rain
since 9 am
mm
Dir
 
Spd
km/h
Gust
km/h
Spd
kts
Gust
kts
28/11:30pm 27.3 27.5 24.7 86 1.8 ESE 32 37 17 20 1014.5 1014.4 1.0
28/11:00pm 27.4 27.7 24.8 86 1.8 ESE 32 37 17 20 1014.9 1014.8 1.0
28/10:30pm 27.5 27.9 24.5 84 2.1 ESE 30 35 16 19 1015.0 1014.9 1.0
28/10:00pm 27.6 27.8 24.7 84 2.0 ESE 32 35 17 19 1015.1 1015.0 1.0
28/09:30pm 27.5 27.3 24.0 81 2.4 ESE 32 35 17 19 1014.9 1014.8 1.0
28/09:00pm 27.4 27.4 24.4 84 2.1 ESE 32 35 17 19 1014.8 1014.7 1.0
28/08:30pm 27.4 27.8 24.4 84 2.1 ESE 30 35 16 19 1014.6 1014.5 1.0
28/08:00pm 27.5 28.3 24.5 84 2.1 ESE 28 33 15 18 1014.3 1014.2 1.0
28/07:30pm 27.5 27.6 24.0 81 2.4 ESE 30 33 16 18 1013.8 1013.7 1.0
28/07:00pm 27.4 27.9 23.9 81 2.4 ESE 28 32 15 17 1013.3 1013.2 1.0
28/06:30pm 27.3 27.4 23.2 78 2.8 ESE 28 32 15 17 1013.1 1013.0 1.0
28/06:00pm 27.3 27.5 23.5 80 2.6 ESE 28 32 15 17 1013.0 1012.9 1.0
28/05:30pm 27.3 27.6 24.3 84 2.1 ESE 30 33 16 18 1012.7 1012.6 1.0
28/05:00pm 27.5 27.6 24.5 84 2.1 ESE 32 37 17 20 1012.3 1012.2 1.0
28/04:30pm 27.8 27.9 24.0 80 2.6 ESE 30 35 16 19 1012.1 1012.0 1.0
28/04:00pm 28.0 28.4 24.4 81 2.5 ESE 30 33 16 18 1011.9 1011.8 1.0
28/03:30pm 28.4 29.2 24.4 79 2.8 ESE 28 33 15 18 1011.7 1011.6 1.0
28/03:00pm 28.6 29.4 24.4 78 2.9 ESE 28 32 15 17 1011.6 1011.5 1.0
28/02:30pm 29.1 30.5 24.8 77 3.0 ESE 26 32 14 17 1011.7 1011.6 1.0
28/02:00pm 29.0 29.3 24.3 76 3.3 ESE 30 33 16 18 1011.8 1011.7 1.0
28/01:30pm 28.4 29.0 24.7 80 2.6 E 30 35 16 19 1011.8 1011.7 1.0
28/01:00pm 28.5 28.8 24.9 81 2.5 ESE 32 35 17 19 1012.0 1011.9 1.0
28/12:30pm 28.6 28.9 25.2 82 2.4 ESE 33 37 18 20 1012.3 1012.2 1.0
28/12:00pm 28.0 28.8 25.1 84 2.0 ESE 30 35 16 19 1012.6 1012.5 1.0
28/11:30am 28.6 29.0 25.0 81 2.5 ESE 32 37 17 20 1013.1 1013.0 1.0
28/11:00am 27.6 27.6 24.4 83 2.2 ESE 32 35 17 19 1013.5 1013.4 1.0
28/10:30am 26.8 26.1 24.2 86 1.8 ESE 35 39 19 21 1013.7 1013.6 1.0
28/10:00am 26.2 25.2 24.3 89 1.3 ESE 37 44 20 24 1014.0 1013.9 1.0
28/09:30am 25.4 23.0 23.9 91 1.0 E 43 50 23 27 1014.1 1014.0 0.6
28/09:00am 28.6 27.8 24.7 79 2.7 ESE 37 43 20 23 1013.7 1013.6 6.0
28/08:30am 28.2 28.3 24.9 82 2.3 SE 33 39 18 21 1013.5 1013.4 -
28/08:00am 27.3 27.1 24.3 84 2.1 SE 33 39 18 21 1013.2 1013.1 -
28/07:30am 27.2 27.0 24.0 83 2.2 ESE 32 39 17 21 1012.8 1012.7 -
28/07:00am 26.7 26.3 24.1 86 1.8 ESE 33 39 18 21 1012.7 1012.6 -
28/06:30am 26.7 25.8 23.9 84 1.9 ESE 35 39 19 21 1012.4 1012.3 -
28/06:00am 26.6 25.8 23.4 82 2.2 ESE 33 39 18 21 1012.2 1012.1 -
28/05:30am 26.5 25.5 23.6 84 2.0 SE 35 39 19 21 1011.9 1011.8 -
28/05:00am 26.7 25.7 23.6 83 2.1 ESE 35 41 19 22 1011.4 1011.3 -
28/04:30am 26.5 25.4 23.4 83 2.1 ESE 35 43 19 23 1011.4 1011.3 -
28/04:00am 26.5 25.3 23.3 82 2.2 ESE 35 41 19 22 1011.4 1011.3 -
28/03:30am 26.5 25.5 23.7 84 1.9 ESE 35 41 19 22 1011.4 1011.3 -
28/03:00am 26.5 25.5 23.6 84 2.0 ESE 35 39 19 21 1011.5 1011.4 2.0
28/02:30am 26.5 25.7 24.0 86 1.7 SE 35 41 19 22 1011.6 1011.5 -
28/02:00am 26.5 25.4 24.2 87 1.6 SE 37 41 20 22 1011.8 1011.7 -
28/01:30am 26.5 25.2 23.1 81 2.3 SE 35 41 19 22 1012.0 1011.9 -
28/01:00am 26.8 25.9 23.9 84 2.0 SE 35 43 19 23 1012.2 1012.1 -
28/12:30am 26.5 25.7 23.3 82 2.2 ESE 33 41 18 22 1012.4 1012.3 -
28/12:00am 26.8 26.5 23.9 84 2.0 ESE 32 35 17 19 1012.6 1012.5 -
 
Date/Time
EST
Temp
°C
App
Temp
°C
Dew
Point
Rel
Hum
%
Delta-T
°C
Wind Press
QNH
hPa
Press
MSL
hPa
Rain
since 9 am
mm
Dir
 
Spd
km/h
Gust
km/h
Spd
kts
Gust
kts
27/11:30pm 26.8 26.2 23.7 83 2.1 ESE 33 39 18 21 1013.0 1012.9 -
27/11:00pm 26.6 26.7 24.0 86 1.8 E 30 33 16 18 1013.0 1012.9 -
27/10:30pm 26.3 26.5 24.1 88 1.5 E 30 35 16 19 1013.2 1013.1 -
27/10:00pm 25.7 25.5 24.0 90 1.2 E 32 35 17 19 1013.3 1013.2 -
27/09:30pm 25.0 22.6 23.8 93 0.8 E 43 50 23 27 1013.1 1013.0 -
27/09:00pm 25.0 23.1 24.0 94 0.7 E 41 48 22 26 1013.5 1013.4 3.0
27/08:30pm 26.1 25.4 24.2 89 1.3 ESE 35 44 19 24 1013.3 1013.2 -
27/08:00pm 26.1 25.6 24.5 91 1.1 ESE 35 41 19 22 1013.1 1013.0 -
27/07:30pm 25.6 24.5 24.1 91 1.0 E 37 46 20 25 1012.8 1012.7 -
27/07:00pm 26.9 26.1 24.0 84 2.0 ESE 35 39 19 21 1012.6 1012.5 -
27/06:30pm 26.6 26.0 24.3 87 1.6 ESE 35 41 19 22 1012.3 1012.2 -
27/06:00pm 27.0 26.8 24.0 83 2.1 ESE 32 35 17 19 1011.9 1011.8 -
27/05:30pm 27.2 26.5 23.6 81 2.5 SE 33 39 18 21 1011.7 1011.6 -

Other Formats:

Comma delimited format used in spreadsheet applications
http://www.bom.gov.au/fwo/IDQ60801/IDQ60801.94299.axf

JavaScript Object Notation format (JSON) in row-major order
http://www.bom.gov.au/fwo/IDQ60801/IDQ60801.94299.json